Time;durP1;ratioP1;P1;durP2;ratioP2;P2;SDS_P1;SDS_P2;PMS_P1;PMS_P2;Temp;Humidity;BMP_temperature;BMP_pressure;BME280_temperature;BME280_humidity;BME280_pressure;Samples;Min_cycle;Max_cycle;Signal;HPM_P1;HPM_P2
2022/10/20 00:00:58;;;;;;;13.70;7.70;;;;;;;41.12;35.65;101078.78;5134458;27;20430;-74
2022/10/20 00:03:25;;;;;;;12.93;7.20;;;;;;;41.18;35.41;101072.06;5135976;27;20395;-74
2022/10/20 00:05:52;;;;;;;17.23;6.83;;;;;;;41.60;35.32;101068.41;5134452;27;20834;-74
2022/10/20 00:08:18;;;;;;;17.43;7.47;;;;;;;41.63;35.36;101069.72;5134273;27;20423;-74
2022/10/20 00:10:55;;;;;;;15.90;6.13;;;;;;;41.24;35.74;101057.94;5134605;27;20423;-74
2022/10/20 00:13:22;;;;;;;31.13;6.60;;;;;;;41.71;35.05;101063.41;5134278;27;20173;-74
2022/10/20 00:15:53;;;;;;;10.47;5.20;;;;;;;41.43;35.51;101057.59;5135555;27;20465;-74
2022/10/20 00:18:19;;;;;;;15.37;7.60;;;;;;;41.74;35.09;101062.81;5134177;27;20461;-74
2022/10/20 00:20:46;;;;;;;12.70;6.53;;;;;;;41.86;34.77;101064.78;5134059;27;20418;-72
2022/10/20 00:23:12;;;;;;;14.57;8.50;;;;;;;41.44;34.89;101063.88;5134000;27;20427;-72
2022/10/20 00:25:38;;;;;;;14.50;5.97;;;;;;;41.54;34.89;101052.59;5135316;27;20470;-73
2022/10/20 00:28:05;;;;;;;25.23;7.10;;;;;;;41.83;34.39;101058.09;5133942;27;20785;-73
2022/10/20 00:30:32;;;;;;;14.80;6.40;;;;;;;41.95;34.53;101059.31;5133934;27;20472;-73
2022/10/20 00:32:58;;;;;;;17.27;8.10;;;;;;;41.80;35.02;101053.28;5135408;27;20423;-73
2022/10/20 00:35:24;;;;;;;13.33;6.40;;;;;;;41.80;34.96;101049.75;5133866;27;20474;-73
2022/10/20 00:37:50;;;;;;;12.10;6.97;;;;;;;42.00;34.38;101048.22;5133722;27;20407;-73
2022/10/20 00:40:16;;;;;;;14.40;5.50;;;;;;;41.85;34.50;101038.69;5135628;27;20250;-73
2022/10/20 00:42:46;;;;;;;15.10;6.43;;;;;;;41.82;34.87;101037.44;5133593;27;20181;-73
2022/10/20 00:45:15;;;;;;;10.07;7.23;;;;;;;41.17;35.64;101030.44;5133497;27;20455;-73
2022/10/20 00:47:56;;;;;;;20.50;7.40;;;;;;;41.61;34.96;101012.03;5133376;27;20423;-72
2022/10/20 00:50:30;;;;;;;20.77;7.30;;;;;;;41.31;35.68;101006.53;5133444;27;20812;-73
2022/10/20 00:52:58;;;;;;;21.37;6.47;;;;;;;41.24;35.84;100998.06;5133427;27;20467;-73
2022/10/20 00:55:33;;;;;;;15.07;6.40;;;;;;;41.08;35.80;100994.28;5133274;27;20403;-72
2022/10/20 00:58:00;;;;;;;18.53;8.03;;;;;;;41.72;35.22;100993.38;5133396;27;20417;-73
2022/10/20 01:00:27;;;;;;;20.03;8.90;;;;;;;41.53;35.14;100988.38;5133237;27;20570;-73
2022/10/20 01:02:57;;;;;;;24.47;6.97;;;;;;;41.63;34.99;100985.28;5133234;27;20418;-73
2022/10/20 01:05:23;;;;;;;13.03;6.37;;;;;;;41.53;35.41;100978.28;5133064;27;20477;-73
2022/10/20 01:07:49;;;;;;;12.67;7.00;;;;;;;41.63;35.45;100985.28;5133450;27;20418;-72
2022/10/20 01:10:16;;;;;;;18.13;5.80;;;;;;;41.51;35.03;100974.28;5133374;27;20435;-73
2022/10/20 01:12:58;;;;;;;11.20;6.43;;;;;;;41.22;35.20;100975.03;5133045;27;20181;-73
2022/10/20 01:15:57;;;;;;;14.33;6.10;;;;;;;41.59;35.13;100971.50;5115656;27;20477;-73
2022/10/20 01:19:09;;;;;;;11.73;5.57;;;;;;;41.77;35.00;100958.59;5133264;27;20415;-73
2022/10/20 01:21:51;;;;;;;14.97;6.40;;;;;;;41.50;35.58;100953.63;5076136;27;20426;-73
2022/10/20 01:24:23;;;;;;;26.57;8.67;;;;;;;41.80;35.13;100951.69;5132646;27;20976;-73
2022/10/20 01:27:15;;;;;;;21.33;9.97;;;;;;;41.76;35.00;100948.06;5132777;27;20506;-73
2022/10/20 01:29:54;;;;;;;29.80;7.83;;;;;;;41.44;35.42;100941.34;5133428;27;20871;-73
2022/10/20 01:32:37;;;;;;;12.47;5.37;;;;;;;41.30;34.97;100936.88;5115713;27;20449;-73
2022/10/20 01:35:12;;;;;;;11.47;6.00;;;;;;;40.62;36.03;100929.72;5132243;27;20471;-72
2022/10/20 01:37:53;;;;;;;16.73;6.07;;;;;;;41.17;35.40;100918.84;5132659;27;20460;-73
2022/10/20 01:40:25;;;;;;;12.43;8.13;;;;;;;41.46;34.60;100922.75;5132687;27;20492;-73
2022/10/20 01:42:54;;;;;;;13.07;5.40;;;;;;;41.31;35.17;100918.59;5133164;27;20410;-73
2022/10/20 01:45:23;;;;;;;14.47;6.87;;;;;;;41.41;34.76;100915.56;5132437;27;20467;-72
2022/10/20 01:47:52;;;;;;;17.00;6.90;;;;;;;41.60;35.08;100928.72;5132481;27;20412;-73
2022/10/20 01:50:19;;;;;;;13.70;5.60;;;;;;;41.05;35.56;100916.00;5115599;27;20993;-73
2022/10/20 01:52:45;;;;;;;13.50;7.30;;;;;;;41.53;35.00;100912.91;5132905;27;20935;-73
2022/10/20 01:55:16;;;;;;;14.53;6.47;;;;;;;41.47;34.58;100902.53;5115588;27;20423;-72
2022/10/20 01:57:45;;;;;;;14.63;5.47;;;;;;;41.61;34.74;100908.53;5115235;27;20443;-73
2022/10/20 02:00:16;;;;;;;22.20;7.97;;;;;;;41.47;35.22;100900.63;5132350;27;20423;-73
2022/10/20 02:03:00;;;;;;;15.67;6.57;;;;;;;40.91;35.58;100891.75;5132459;27;20422;-73
2022/10/20 02:05:56;;;;;;;16.13;6.53;;;;;;;41.44;35.15;100892.34;5133470;27;20475;-72
2022/10/20 02:08:28;;;;;;;14.60;6.13;;;;;;;41.63;34.68;100889.94;5132223;28;20419;-72
2022/10/20 02:10:58;;;;;;;15.03;8.83;;;;;;;41.68;34.73;100897.94;5132201;28;20418;-73
2022/10/20 02:13:27;;;;;;;9.37;4.70;;;;;;;41.34;35.21;100896.22;5132601;28;21041;-73
2022/10/20 02:15:56;;;;;;;13.20;8.07;;;;;;;41.24;35.47;100883.75;5131986;28;20509;-72
2022/10/20 02:18:30;;;;;;;39.23;7.83;;;;;;;41.39;35.58;100878.91;5132161;28;20480;-73
2022/10/20 02:21:00;;;;;;;12.20;7.97;;;;;;;41.64;35.23;100882.56;5132502;28;20402;-73
2022/10/20 02:23:29;;;;;;;24.33;9.50;;;;;;;41.36;35.48;100885.78;5133717;27;20391;-73
2022/10/20 02:25:58;;;;;;;14.00;7.97;;;;;;;41.53;35.10;100891.13;5114801;28;20451;-73
2022/10/20 02:28:27;;;;;;;16.20;7.60;;;;;;;41.52;35.37;100883.28;5132053;28;20497;-73
2022/10/20 02:30:54;;;;;;;14.90;6.70;;;;;;;41.68;35.10;100895.22;5133611;27;20411;-72
2022/10/20 02:33:22;;;;;;;23.17;8.13;;;;;;;41.59;35.28;100895.25;5115053;28;20965;-73
2022/10/20 02:35:54;;;;;;;24.83;6.70;;;;;;;41.57;35.14;100885.81;5114978;28;20464;-73
2022/10/20 02:38:20;;;;;;;14.80;5.67;;;;;;;41.17;36.07;100879.94;5115620;28;20407;-72
2022/10/20 02:40:46;;;;;;;14.23;6.83;;;;;;;41.43;35.31;100877.88;5132338;28;20498;-73
2022/10/20 02:43:12;;;;;;;21.40;8.73;;;;;;;41.15;35.91;100880.28;5131875;28;20490;-72
2022/10/20 02:45:38;;;;;;;18.67;6.90;;;;;;;41.12;36.03;100871.97;5133533;27;20435;-72
2022/10/20 02:48:06;;;;;;;15.70;7.23;;;;;;;41.21;36.03;100875.44;5134402;27;20186;-73
2022/10/20 02:50:32;;;;;;;19.07;6.97;;;;;;;41.62;35.07;100882.91;5135901;27;20502;-73
2022/10/20 02:52:58;;;;;;;19.17;8.83;;;;;;;41.60;35.26;100887.88;5136138;27;20514;-73
2022/10/20 02:55:23;;;;;;;21.73;8.30;;;;;;;41.47;35.52;100883.50;5137310;27;20154;-72
2022/10/20 02:57:52;;;;;;;28.23;10.07;;;;;;;41.64;35.12;100893.47;5137027;27;20218;-73
2022/10/20 03:00:19;;;;;;;24.47;7.77;;;;;;;41.42;35.27;100887.19;5135866;27;20208;-72
2022/10/20 03:02:50;;;;;;;11.67;6.37;;;;;;;41.53;35.31;100887.59;5136930;27;20403;-73
2022/10/20 03:05:17;;;;;;;16.70;7.33;;;;;;;41.66;35.15;100900.16;5118833;27;20493;-73
2022/10/20 03:07:43;;;;;;;13.10;7.93;;;;;;;41.41;35.32;100896.50;5137125;27;20429;-73
2022/10/20 03:10:09;;;;;;;23.17;7.27;;;;;;;41.33;35.24;100900.88;5135434;27;20914;-73
2022/10/20 03:12:35;;;;;;;15.10;6.63;;;;;;;41.19;35.56;100900.28;5135398;27;20483;-72
2022/10/20 03:15:01;;;;;;;15.30;6.47;;;;;;;41.40;35.19;100889.47;5135467;27;20557;-72
2022/10/20 03:17:27;;;;;;;16.30;6.00;;;;;;;41.36;35.28;100887.72;5135340;27;20234;-72
2022/10/20 03:19:53;;;;;;;18.73;6.00;;;;;;;41.23;35.76;100895.75;5135197;27;20288;-72
2022/10/20 03:22:18;;;;;;;17.60;7.30;;;;;;;41.52;35.03;100903.16;5135315;27;20192;-72
2022/10/20 03:24:44;;;;;;;18.43;7.60;;;;;;;41.79;35.10;100909.25;5135024;27;20490;-72
2022/10/20 03:27:10;;;;;;;13.00;6.23;;;;;;;41.11;35.76;100892.16;5135374;27;20173;-73
2022/10/20 03:29:36;;;;;;;19.87;7.90;;;;;;;40.90;36.26;100892.88;5136397;27;20162;-72
2022/10/20 03:32:02;;;;;;;12.23;7.00;;;;;;;41.30;35.54;100906.13;5136216;27;20427;-72
2022/10/20 03:34:28;;;;;;;17.97;5.70;;;;;;;41.04;35.61;100903.53;5135068;27;20556;-72
2022/10/20 03:36:54;;;;;;;21.30;7.93;;;;;;;41.60;34.84;100905.00;5134973;27;20230;-72
2022/10/20 03:39:20;;;;;;;25.10;7.73;;;;;;;41.31;35.36;100908.53;5134928;27;20185;-73
2022/10/20 03:41:46;;;;;;;9.17;6.60;;;;;;;41.26;35.49;100914.16;5134945;27;20438;-72
2022/10/20 03:44:12;;;;;;;16.27;5.90;;;;;;;41.26;35.75;100916.88;5134596;27;21005;-73
2022/10/20 03:46:38;;;;;;;19.83;9.87;;;;;;;41.08;35.15;100921.63;5134815;27;20174;-73
2022/10/20 03:49:03;;;;;;;14.87;7.20;;;;;;;41.01;35.66;100915.09;5136089;27;20463;-73
2022/10/20 03:51:29;;;;;;;11.33;6.50;;;;;;;41.38;34.75;100920.88;5134716;27;20181;-73
2022/10/20 03:53:55;;;;;;;14.40;5.60;;;;;;;40.79;35.67;100916.88;5134548;27;20410;-73
2022/10/20 03:56:21;;;;;;;11.23;5.83;;;;;;;41.24;35.09;100919.13;5134555;27;20253;-73
2022/10/20 03:58:47;;;;;;;14.67;8.50;;;;;;;41.34;34.76;100907.91;5117132;27;20177;-73
2022/10/20 04:01:20;;;;;;;24.37;6.87;;;;;;;41.05;35.62;100905.94;5134389;27;20413;-74
2022/10/20 04:03:46;;;;;;;17.83;6.40;;;;;;;41.46;34.61;100903.69;5134543;27;20503;-73
2022/10/20 04:06:13;;;;;;;19.07;7.37;;;;;;;40.86;36.02;100905.50;5134445;27;20462;-73
2022/10/20 04:08:39;;;;;;;13.80;7.27;;;;;;;41.11;35.83;100906.53;5134320;27;20414;-73
2022/10/20 04:11:05;;;;;;;18.80;7.27;;;;;;;41.38;35.25;100909.97;5134343;27;20407;-73
2022/10/20 04:13:31;;;;;;;14.60;5.73;;;;;;;41.41;35.02;100914.75;5134405;27;20403;-73
2022/10/20 04:15:57;;;;;;;20.83;7.00;;;;;;;41.39;35.52;100919.75;5133999;27;21046;-73
2022/10/20 04:18:23;;;;;;;11.67;6.50;;;;;;;41.52;35.26;100915.97;5134443;27;20518;-73
2022/10/20 04:20:49;;;;;;;22.67;7.27;;;;;;;41.27;35.45;100918.47;5134058;27;20418;-75
2022/10/20 04:23:15;;;;;;;13.90;6.33;;;;;;;41.47;35.02;100922.41;5134338;27;20416;-74
2022/10/20 04:25:44;;;;;;;10.97;6.20;;;;;;;41.32;35.23;100921.06;5133947;27;20859;-75
2022/10/20 04:28:18;;;;;;;20.70;5.90;;;;;;;41.00;35.50;100933.31;5135579;27;20248;-73
2022/10/20 04:30:45;;;;;;;12.27;7.53;;;;;;;41.39;35.06;100944.25;5133899;27;20443;-73
2022/10/20 04:33:11;;;;;;;14.60;6.93;;;;;;;41.31;35.42;100934.94;5135375;27;20396;-73
2022/10/20 04:35:38;;;;;;;17.87;7.37;;;;;;;41.82;34.77;100939.34;5135592;27;20395;-73
2022/10/20 04:38:05;;;;;;;24.80;8.17;;;;;;;41.54;35.10;100941.72;5133639;27;20422;-73
2022/10/20 04:40:31;;;;;;;20.40;8.23;;;;;;;41.39;35.14;100944.25;5133714;27;20417;-73
2022/10/20 04:43:00;;;;;;;16.03;7.97;;;;;;;40.91;35.66;100957.03;5133727;27;20422;-72
2022/10/20 04:45:26;;;;;;;12.30;5.77;;;;;;;40.79;36.13;100951.44;5133509;27;20554;-73
2022/10/20 04:47:52;;;;;;;16.00;7.97;;;;;;;41.14;35.76;100957.63;5133584;27;20467;-73
2022/10/20 04:50:18;;;;;;;20.23;7.27;;;;;;;41.12;35.46;100956.31;5133454;27;20419;-72
2022/10/20 04:52:44;;;;;;;37.70;9.57;;;;;;;41.03;35.83;100962.59;5133742;27;20422;-73
2022/10/20 04:55:10;;;;;;;16.77;7.40;;;;;;;41.56;35.20;100966.72;5135082;27;20395;-73
2022/10/20 04:57:35;;;;;;;14.00;7.47;;;;;;;41.39;35.43;100968.75;5133605;27;20268;-73
2022/10/20 05:00:01;;;;;;;12.03;7.60;;;;;;;41.42;35.26;100962.63;5135016;27;20157;-73
2022/10/20 05:02:29;;;;;;;18.93;7.73;;;;;;;41.42;35.54;100968.88;5134803;27;20177;-72
2022/10/20 05:04:54;;;;;;;14.90;7.57;;;;;;;41.39;35.30;100974.19;5133102;27;20967;-73
2022/10/20 05:07:20;;;;;;;29.17;7.63;;;;;;;41.69;35.00;100978.50;5134897;27;20914;-73
2022/10/20 05:09:47;;;;;;;23.53;9.90;;;;;;;41.55;35.14;100972.47;5132374;27;20209;-73
2022/10/20 05:12:13;;;;;;;19.83;8.50;;;;;;;41.69;35.15;100975.78;5133086;27;20197;-73
2022/10/20 05:14:39;;;;;;;13.80;6.93;;;;;;;41.68;35.03;100984.25;5132726;27;20494;-73
2022/10/20 05:17:04;;;;;;;25.67;9.50;;;;;;;41.69;34.96;100972.28;5133008;27;20664;-73
2022/10/20 05:19:30;;;;;;;14.43;6.73;;;;;;;41.62;35.00;100983.69;5133260;27;20188;-73
2022/10/20 05:21:56;;;;;;;18.40;7.70;;;;;;;41.51;34.93;100985.19;5133089;27;20184;-72
2022/10/20 05:24:22;;;;;;;12.87;6.20;;;;;;;41.31;35.13;100984.75;5132822;27;20250;-73
2022/10/20 05:26:48;;;;;;;18.47;7.70;;;;;;;40.92;36.16;100976.88;5132854;27;20554;-73
2022/10/20 05:29:15;;;;;;;21.70;10.40;;;;;;;41.38;35.16;100980.78;5123658;27;20421;-74
2022/10/20 05:31:43;;;;;;;17.50;8.30;;;;;;;41.47;35.23;100985.03;5100444;28;20171;-73
2022/10/20 05:34:10;;;;;;;26.93;10.17;;;;;;;41.00;35.89;100984.22;5101540;28;20931;-73
2022/10/20 05:36:36;;;;;;;18.80;7.33;;;;;;;41.30;35.23;100972.25;5106549;28;20424;-72
2022/10/20 05:39:03;;;;;;;18.30;8.33;;;;;;;41.02;35.79;100974.63;5111992;28;20412;-73
2022/10/20 05:41:31;;;;;;;15.30;7.77;;;;;;;41.34;35.80;100967.00;5112028;28;20426;-71
2022/10/20 05:44:00;;;;;;;23.40;8.03;;;;;;;41.40;35.37;100968.41;5103514;28;20420;-76
2022/10/20 05:46:30;;;;;;;21.20;8.37;;;;;;;41.31;35.69;100968.44;5109606;28;20448;-72
2022/10/20 05:48:58;;;;;;;12.17;7.40;;;;;;;41.27;35.98;100964.75;5105053;28;20890;-71
2022/10/20 05:51:27;;;;;;;10.33;6.50;;;;;;;40.99;35.96;100966.28;5109794;28;20798;-72
2022/10/20 05:53:57;;;;;;;17.70;8.70;;;;;;;40.32;37.50;100975.78;5105008;28;20417;-71
2022/10/20 05:56:25;;;;;;;16.70;9.27;;;;;;;40.68;36.92;100967.31;5108640;28;20412;-71
2022/10/20 05:58:51;;;;;;;20.90;9.67;;;;;;;40.21;37.26;100979.97;5096632;28;20936;-71
2022/10/20 06:01:23;;;;;;;21.77;11.00;;;;;;;40.63;37.13;100980.28;5103324;28;20962;-71
2022/10/20 06:03:54;;;;;;;16.17;11.07;;;;;;;39.95;38.20;100991.53;5105254;28;20924;-70
2022/10/20 06:06:23;;;;;;;24.60;10.90;;;;;;;40.38;37.36;101001.69;5101564;28;20468;-70
2022/10/20 06:08:49;;;;;;;17.00;10.13;;;;;;;40.89;36.55;101005.53;5098266;28;20412;-72
2022/10/20 06:11:16;;;;;;;17.30;9.83;;;;;;;41.11;36.35;101009.97;5108404;28;20428;-70
2022/10/20 06:13:43;;;;;;;20.87;9.57;;;;;;;41.27;35.79;101011.03;5109340;28;20466;-70
2022/10/20 06:16:14;;;;;;;17.17;8.53;;;;;;;40.99;36.45;101020.72;5107954;28;20455;-70
2022/10/20 06:18:42;;;;;;;18.90;10.90;;;;;;;41.33;35.83;101025.28;5107376;28;20411;-71
2022/10/20 06:21:17;;;;;;;18.43;12.30;;;;;;;39.90;38.11;101021.59;5106529;28;20420;-69
2022/10/20 06:23:44;;;;;;;15.50;9.20;;;;;;;40.48;37.17;101027.78;5111508;28;20450;-73
2022/10/20 06:26:12;;;;;;;19.73;11.93;;;;;;;40.14;38.03;101029.31;5114770;28;20467;-70
2022/10/20 06:28:40;;;;;;;19.00;12.17;;;;;;;40.08;37.87;101036.03;5114824;28;20468;-71
2022/10/20 06:31:18;;;;;;;31.30;12.00;;;;;;;40.11;37.96;101026.47;5114977;28;20511;-70
2022/10/20 06:33:44;;;;;;;42.57;15.90;;;;;;;39.94;38.15;101029.91;5117134;28;20396;-71
2022/10/20 06:36:10;;;;;;;16.70;12.27;;;;;;;40.43;37.50;101034.16;5113666;28;20415;-71
2022/10/20 06:38:38;;;;;;;18.83;11.13;;;;;;;39.88;38.60;101031.16;5115844;28;20392;-71
2022/10/20 06:41:06;;;;;;;15.80;12.07;;;;;;;40.40;37.50;101042.16;5115011;28;20865;-70
2022/10/20 06:43:32;;;;;;;31.23;15.07;;;;;;;40.88;36.63;101041.19;5116569;28;20503;-70
2022/10/20 06:46:01;;;;;;;23.30;14.17;;;;;;;40.09;37.59;101036.84;5116356;28;21029;-70
2022/10/20 06:48:27;;;;;;;19.10;13.93;;;;;;;40.84;36.93;101045.69;5123653;27;20439;-70
2022/10/20 06:51:01;;;;;;;35.13;17.20;;;;;;;40.19;37.71;101041.97;5135906;27;20423;-69
2022/10/20 06:53:27;;;;;;;29.97;17.20;;;;;;;40.38;37.48;101044.38;5116949;27;20438;-72
2022/10/20 06:55:58;;;;;;;34.90;18.37;;;;;;;39.72;38.58;101039.75;5116926;28;20424;-72
2022/10/20 06:58:24;;;;;;;21.80;16.80;;;;;;;39.93;38.07;101031.03;5109799;28;20842;-70
2022/10/20 07:01:01;;;;;;;29.80;16.83;;;;;;;40.44;36.96;101043.09;5113511;28;20450;-70
2022/10/20 07:03:29;;;;;;;26.57;16.83;;;;;;;40.70;37.01;101054.84;5106633;28;20937;-69
2022/10/20 07:05:55;;;;;;;33.07;14.90;;;;;;;40.87;36.61;101051.28;5096366;28;20464;-69
2022/10/20 07:08:21;;;;;;;37.17;20.37;;;;;;;40.87;36.76;101055.91;5113695;28;20412;-70
2022/10/20 07:10:56;;;;;;;37.77;22.63;;;;;;;40.84;36.28;101054.66;5107299;28;20427;-70
2022/10/20 07:13:21;;;;;;;28.10;16.63;;;;;;;40.87;36.17;101058.63;5096377;28;20407;-69
2022/10/20 07:15:47;;;;;;;24.70;15.50;;;;;;;41.08;36.06;101067.78;5097236;28;20463;-70
2022/10/20 07:18:13;;;;;;;28.13;16.53;;;;;;;41.14;36.47;101071.13;5097314;28;20174;-69
2022/10/20 07:20:39;;;;;;;27.80;16.27;;;;;;;41.06;36.40;101086.31;5097230;28;20181;-71
2022/10/20 07:23:05;;;;;;;25.17;13.70;;;;;;;40.96;36.48;101087.47;5080320;28;20680;-69
2022/10/20 07:25:31;;;;;;;33.23;15.43;;;;;;;40.20;37.45;101087.03;5097589;28;20271;-69
2022/10/20 07:27:56;;;;;;;29.13;14.13;;;;;;;40.17;37.67;101098.56;5097613;28;20181;-69
2022/10/20 07:30:22;;;;;;;24.70;16.13;;;;;;;41.06;36.46;101097.22;5114396;28;20224;-69
2022/10/20 07:32:48;;;;;;;23.70;17.80;;;;;;;40.84;36.17;101105.53;5097106;28;20182;-70
2022/10/20 07:35:14;;;;;;;36.43;16.40;;;;;;;40.31;37.69;101103.84;5116056;28;20146;-69
2022/10/20 07:37:40;;;;;;;31.07;15.10;;;;;;;41.00;36.42;101112.09;5097512;28;20213;-71
2022/10/20 07:40:06;;;;;;;20.27;15.20;;;;;;;41.02;36.29;101118.03;5114399;28;20444;-71
2022/10/20 07:42:32;;;;;;;28.23;13.50;;;;;;;40.92;35.77;101116.44;5114618;28;20178;-71
2022/10/20 07:44:58;;;;;;;27.13;15.20;;;;;;;40.05;37.86;101129.06;5114273;28;20463;-69
2022/10/20 07:47:25;;;;;;;21.23;14.00;;;;;;;40.54;37.36;101132.56;5114417;28;20610;-69
2022/10/20 07:49:50;;;;;;;16.60;12.87;;;;;;;41.23;35.94;101137.22;5134496;27;20556;-69
2022/10/20 07:52:17;;;;;;;20.57;12.33;;;;;;;41.19;35.87;101141.69;5135636;27;20893;-69
2022/10/20 07:54:43;;;;;;;18.10;12.30;;;;;;;41.07;35.67;101147.81;5134313;27;20636;-69
2022/10/20 07:57:09;;;;;;;16.40;11.00;;;;;;;41.01;35.52;101155.34;5136067;27;20739;-70
2022/10/20 07:59:35;;;;;;;19.33;12.10;;;;;;;41.52;35.05;101153.69;5134794;27;20445;-69
2022/10/20 08:02:01;;;;;;;19.40;10.27;;;;;;;40.74;36.07;101148.25;5136000;27;20449;-69
2022/10/20 08:04:30;;;;;;;30.20;9.93;;;;;;;41.07;35.73;101150.53;5134429;27;20918;-69
2022/10/20 08:06:57;;;;;;;24.83;15.87;;;;;;;41.25;35.79;101154.00;5134551;27;20917;-69
2022/10/20 08:09:23;;;;;;;25.37;13.80;;;;;;;41.46;35.36;101165.06;5134413;27;20430;-69
2022/10/20 08:11:49;;;;;;;18.33;13.43;;;;;;;41.73;35.00;101166.59;5134182;27;20423;-68
2022/10/20 08:14:15;;;;;;;28.00;15.40;;;;;;;41.59;35.36;101169.53;5133989;27;20447;-69
2022/10/20 08:16:41;;;;;;;18.70;10.10;;;;;;;41.08;35.67;101174.69;5134296;27;20415;-70
2022/10/20 08:19:07;;;;;;;26.33;10.03;;;;;;;41.05;36.03;101183.50;5134040;27;20177;-70
2022/10/20 08:21:33;;;;;;;26.03;11.13;;;;;;;40.98;35.87;101179.66;5135757;27;20519;-70
2022/10/20 08:24:00;;;;;;;16.27;10.20;;;;;;;41.04;36.08;101183.81;5135681;27;20158;-69
2022/10/20 08:26:26;;;;;;;20.60;10.47;;;;;;;41.00;35.90;101191.81;5134023;27;20542;-69
2022/10/20 08:28:53;;;;;;;19.77;9.00;;;;;;;41.41;35.60;101184.28;5134012;27;20426;-69
2022/10/20 08:31:19;;;;;;;21.53;10.23;;;;;;;41.32;35.59;101187.00;5133865;27;20456;-69
2022/10/20 08:33:46;;;;;;;29.67;10.13;;;;;;;41.30;35.48;101183.78;5135460;27;20402;-69
2022/10/20 08:36:13;;;;;;;16.37;7.53;;;;;;;41.37;35.66;101196.94;5133705;27;20443;-69
2022/10/20 08:38:40;;;;;;;15.53;9.03;;;;;;;41.86;35.00;101201.03;5133704;27;20411;-69
2022/10/20 08:41:16;;;;;;;18.73;10.37;;;;;;;41.71;35.22;101191.44;5133780;27;20419;-70
2022/10/20 08:43:44;;;;;;;18.70;13.17;;;;;;;41.86;35.30;101195.56;5133454;27;20510;-69
2022/10/20 08:46:14;;;;;;;13.63;9.27;;;;;;;41.57;35.49;101199.00;5132759;27;20533;-69
2022/10/20 08:48:41;;;;;;;17.73;9.23;;;;;;;41.44;35.48;101189.91;5134813;27;20416;-70
2022/10/20 08:51:24;;;;;;;17.03;8.73;;;;;;;41.71;35.59;101191.44;5133587;27;20906;-69
2022/10/20 08:53:54;;;;;;;25.40;10.77;;;;;;;41.16;36.29;101194.06;5133306;27;20431;-69
2022/10/20 08:56:24;;;;;;;19.50;9.80;;;;;;;41.83;35.01;101186.13;5135119;27;20403;-70
2022/10/20 08:58:50;;;;;;;18.30;11.20;;;;;;;42.00;35.06;101188.00;5133248;27;20410;-70
2022/10/20 09:01:22;;;;;;;23.57;11.23;;;;;;;42.22;34.76;101183.44;5133388;27;20488;-70
2022/10/20 09:03:58;;;;;;;20.20;8.77;;;;;;;42.45;34.38;101190.22;5134668;27;20436;-69
2022/10/20 09:06:24;;;;;;;18.50;8.03;;;;;;;42.60;34.01;101192.41;5133240;27;20476;-70
2022/10/20 09:08:51;;;;;;;20.87;9.90;;;;;;;42.39;34.26;101186.88;5133126;27;20411;-70
2022/10/20 09:11:22;;;;;;;18.60;9.73;;;;;;;42.07;34.24;101184.78;5133199;27;20418;-70
2022/10/20 09:13:49;;;;;;;16.60;10.93;;;;;;;41.98;34.78;101176.63;5099355;27;20422;-70
2022/10/20 09:16:32;;;;;;;14.00;7.80;;;;;;;42.10;34.47;101189.56;5132851;27;20994;-69
2022/10/20 09:19:00;;;;;;;19.70;8.87;;;;;;;42.30;34.48;101183.41;5132946;27;20433;-70
2022/10/20 09:21:30;;;;;;;14.53;8.37;;;;;;;42.53;33.94;101181.16;5134711;27;20872;-70
2022/10/20 09:24:01;;;;;;;15.70;9.07;;;;;;;42.45;34.27;101182.03;5132867;27;20981;-70
2022/10/20 09:26:30;;;;;;;21.93;10.63;;;;;;;41.96;35.22;101178.09;5132842;27;20494;-69
2022/10/20 09:29:33;;;;;;;23.80;9.50;;;;;;;42.38;34.47;101179.81;5133065;27;20479;-69
2022/10/20 09:31:59;;;;;;;15.00;9.10;;;;;;;42.67;34.03;101178.22;5132905;27;20907;-69
2022/10/20 09:34:28;;;;;;;18.53;8.00;;;;;;;42.80;33.60;101171.72;5132645;27;20518;-70
2022/10/20 09:37:01;;;;;;;18.63;8.90;;;;;;;42.30;34.15;101177.16;5134252;27;20248;-70
2022/10/20 09:39:30;;;;;;;14.93;6.50;;;;;;;41.59;35.24;101169.53;5132515;27;20806;-70
2022/10/20 09:42:14;;;;;;;16.07;8.10;;;;;;;41.68;34.90;101172.22;5132550;27;20419;-70
2022/10/20 09:45:05;;;;;;;22.73;7.97;;;;;;;42.25;34.15;101164.50;5132437;27;20878;-69
2022/10/20 09:47:33;;;;;;;18.10;7.87;;;;;;;42.25;34.20;101175.41;5132380;27;20478;-72
2022/10/20 09:50:04;;;;;;;17.53;8.30;;;;;;;42.58;34.08;101166.56;5132443;27;20506;-70
2022/10/20 09:52:46;;;;;;;12.43;8.03;;;;;;;43.03;33.11;101166.75;5132449;27;20423;-69
2022/10/20 09:55:44;;;;;;;17.40;8.80;;;;;;;42.56;33.68;101169.59;5132379;27;20487;-71
2022/10/20 09:58:41;;;;;;;19.87;10.70;;;;;;;42.80;33.97;101177.16;5127596;27;20422;-74
2022/10/20 10:02:02;;;;;;;12.10;7.40;;;;;;;42.85;33.29;101171.50;5107845;27;20411;-74
2022/10/20 10:04:49;;;;;;;15.50;8.77;;;;;;;42.58;33.53;101163.84;5133755;27;20402;-74
2022/10/20 10:07:21;;;;;;;16.70;7.80;;;;;;;43.07;32.88;101164.91;5132231;27;20475;-74
2022/10/20 10:10:02;;;;;;;26.47;10.40;;;;;;;42.86;33.27;101162.19;5132182;27;20421;-74
2022/10/20 10:12:31;;;;;;;19.37;8.93;;;;;;;42.78;33.09;101154.84;5132456;28;20922;-74
2022/10/20 10:15:01;;;;;;;14.40;9.07;;;;;;;42.43;33.95;101161.69;5131681;28;20479;-74
2022/10/20 10:17:33;;;;;;;16.63;8.87;;;;;;;42.65;33.45;101166.84;5115599;28;20455;-74
2022/10/20 10:20:00;;;;;;;13.67;7.50;;;;;;;43.00;32.91;101167.41;5115017;28;20786;-73
2022/10/20 10:22:27;;;;;;;21.43;8.97;;;;;;;42.84;33.31;101155.44;5132165;28;20792;-75
2022/10/20 10:24:55;;;;;;;20.03;9.47;;;;;;;42.76;33.39;101164.50;5133601;27;20466;-75
2022/10/20 10:27:29;;;;;;;18.13;8.43;;;;;;;42.73;33.40;101157.81;5133690;27;20387;-74
2022/10/20 10:30:16;;;;;;;20.70;10.20;;;;;;;42.51;34.31;101147.19;5132098;28;20447;-71
2022/10/20 10:32:46;;;;;;;16.30;9.13;;;;;;;42.29;34.41;101138.16;5121651;28;20423;-73
2022/10/20 10:35:23;;;;;;;26.00;10.00;;;;;;;42.38;33.91;101133.47;5115030;28;20481;-70
2022/10/20 10:37:51;;;;;;;20.20;9.27;;;;;;;42.43;34.34;101126.22;5114921;28;20417;-71
2022/10/20 10:40:28;;;;;;;16.27;9.03;;;;;;;42.46;34.40;101115.44;5132300;28;20469;-79
2022/10/20 10:43:28;;;;;;;26.23;9.77;;;;;;;42.67;33.55;101109.22;5131992;28;20419;-71
2022/10/20 10:45:57;;;;;;;22.53;11.50;;;;;;;42.47;34.38;101108.84;5131892;28;20459;-69
2022/10/20 10:48:44;;;;;;;17.30;8.03;;;;;;;42.46;33.80;101109.19;5131821;28;20419;-69
2022/10/20 10:51:20;;;;;;;23.57;9.90;;;;;;;42.99;33.45;101113.16;5131937;28;20918;-70
2022/10/20 10:53:50;;;;;;;16.30;10.67;;;;;;;43.43;32.82;101109.66;5131542;28;20806;-70
2022/10/20 10:56:37;;;;;;;21.80;7.93;;;;;;;43.03;33.16;101111.31;5131881;28;20411;-70
2022/10/20 10:59:20;;;;;;;14.20;9.60;;;;;;;42.48;33.88;101101.47;5132103;28;20453;-70
2022/10/20 11:01:58;;;;;;;22.60;10.10;;;;;;;42.55;33.86;101099.81;5131646;28;20934;-69
2022/10/20 11:04:51;;;;;;;18.10;9.33;;;;;;;42.99;33.30;101104.97;5131728;28;20415;-69
2022/10/20 11:07:35;;;;;;;22.33;10.80;;;;;;;43.18;32.86;101097.06;5131700;27;20821;-69
2022/10/20 11:10:21;;;;;;;22.37;10.70;;;;;;;42.92;33.24;101100.03;5135488;27;20974;-69
2022/10/20 11:13:01;;;;;;;18.57;10.80;;;;;;;42.07;34.10;101086.66;5135351;27;20411;-69
2022/10/20 11:15:45;;;;;;;17.30;11.50;;;;;;;42.24;34.32;101077.59;5135290;27;20466;-72
2022/10/20 11:18:33;;;;;;;20.20;11.57;;;;;;;42.96;33.13;101090.00;5135340;27;20812;-71
2022/10/20 11:21:17;;;;;;;20.73;14.23;;;;;;;43.01;33.33;101084.38;5135287;27;20435;-71
2022/10/20 11:24:05;;;;;;;21.00;11.30;;;;;;;42.22;33.77;101069.72;5135327;27;20435;-71
2022/10/20 11:26:36;;;;;;;22.90;13.80;;;;;;;42.21;34.12;101065.41;5135127;27;20819;-69
2022/10/20 11:29:11;;;;;;;19.40;10.60;;;;;;;42.95;33.13;101060.31;5136707;27;20454;-69